Time;durP1;ratioP1;P1;durP2;ratioP2;P2;SDS_P1;SDS_P2;PMS_P1;PMS_P2;Temp;Humidity;BMP_temperature;BMP_pressure;BME280_temperature;BME280_humidity;BME280_pressure;Samples;Min_cycle;Max_cycle;Signal;HPM_P1;HPM_P2
2023/02/25 00:02:09;;;;;;;47.50;25.33;;;5.10;99.90;;;;;;5073159;28;20115;-79
2023/02/25 00:04:34;;;;;;;52.22;25.67;;;5.10;99.90;;;;;;5074287;28;20032;-79
2023/02/25 00:07:01;;;;;;;54.63;27.70;;;5.20;99.90;;;;;;5075770;28;20047;-81
2023/02/25 00:09:27;;;;;;;219.60;84.85;;;5.10;99.90;;;;;;5076573;28;20025;-81
2023/02/25 00:11:53;;;;;;;337.65;123.65;;;5.10;99.90;;;;;;5075224;28;20024;-81
2023/02/25 00:14:18;;;;;;;72.68;36.85;;;5.10;99.90;;;;;;5075301;28;20281;-81
2023/02/25 00:16:44;;;;;;;127.68;55.13;;;5.00;99.90;;;;;;5076749;28;20020;-81
2023/02/25 00:19:10;;;;;;;206.38;86.75;;;4.90;99.90;;;;;;5075303;28;20027;-81
2023/02/25 00:21:36;;;;;;;166.93;70.05;;;4.90;99.90;;;;;;5076708;28;20467;-80
2023/02/25 00:24:02;;;;;;;161.20;66.63;;;4.80;99.90;;;;;;5076695;28;20431;-79
2023/02/25 00:26:28;;;;;;;297.35;111.45;;;4.70;99.90;;;;;;5075971;28;20051;-79
2023/02/25 00:28:54;;;;;;;190.65;76.38;;;4.70;99.90;;;;;;5076438;28;20028;-79
2023/02/25 00:31:23;;;;;;;108.10;48.05;;;4.70;99.90;;;;;;5075134;28;20028;-79
2023/02/25 00:33:49;;;;;;;246.13;104.35;;;4.70;99.90;;;;;;5076229;28;20056;-78
2023/02/25 00:36:19;;;;;;;262.23;109.32;;;4.70;99.90;;;;;;5076169;28;20040;-80
2023/02/25 00:38:56;;;;;;;209.85;91.03;;;4.70;99.90;;;;;;5075271;28;20580;-80
2023/02/25 00:41:25;;;;;;;105.15;47.67;;;4.60;99.90;;;;;;5076557;28;20052;-80
2023/02/25 00:43:53;;;;;;;82.13;38.38;;;4.60;99.90;;;;;;5074803;28;20485;-80
2023/02/25 00:46:19;;;;;;;122.97;58.45;;;4.60;99.90;;;;;;5075895;28;20047;-80
2023/02/25 00:48:45;;;;;;;121.53;55.20;;;4.60;99.90;;;;;;5076113;28;20020;-80
2023/02/25 00:51:14;;;;;;;97.47;46.15;;;4.60;99.90;;;;;;5074576;28;20031;-80
2023/02/25 00:53:40;;;;;;;128.35;58.92;;;4.60;99.90;;;;;;5074856;28;20115;-81
2023/02/25 00:56:07;;;;;;;95.35;45.17;;;4.50;99.90;;;;;;5074464;28;20032;-80
2023/02/25 00:58:37;;;;;;;62.75;30.42;;;4.40;99.90;;;;;;5074684;28;20032;-80
2023/02/25 01:01:24;;;;;;;51.72;25.35;;;4.40;99.90;;;;;;5074493;28;20020;-80
2023/02/25 01:03:52;;;;;;;56.97;28.60;;;4.30;99.90;;;;;;5074813;28;20028;-80
2023/02/25 01:06:18;;;;;;;61.10;27.33;;;4.30;99.90;;;;;;5074526;28;20039;-80
2023/02/25 01:08:44;;;;;;;45.72;23.40;;;4.20;99.90;;;;;;5074656;28;20024;-80
2023/02/25 01:11:15;;;;;;;52.08;25.25;;;4.20;99.90;;;;;;5075536;28;20029;-80
2023/02/25 01:13:42;;;;;;;42.03;22.02;;;4.20;99.90;;;;;;5074373;28;20385;-80
2023/02/25 01:16:17;;;;;;;47.90;25.38;;;4.20;99.90;;;;;;5073297;28;20041;-80
2023/02/25 01:18:43;;;;;;;43.45;22.70;;;4.10;99.90;;;;;;5074308;28;20428;-80
2023/02/25 01:21:16;;;;;;;53.53;25.38;;;4.10;99.90;;;;;;5075603;28;20047;-80
2023/02/25 01:23:43;;;;;;;53.05;26.02;;;4.00;99.90;;;;;;5074440;28;20017;-81
2023/02/25 01:26:09;;;;;;;61.15;30.70;;;4.00;99.90;;;;;;5073717;28;20040;-81
2023/02/25 01:28:35;;;;;;;79.13;38.10;;;4.00;99.90;;;;;;5073775;28;20024;-81
2023/02/25 01:31:00;;;;;;;110.85;53.22;;;4.00;99.90;;;;;;5074873;28;20035;-81
2023/02/25 01:33:26;;;;;;;58.03;29.60;;;4.00;99.90;;;;;;5075175;28;20052;-81
2023/02/25 01:35:51;;;;;;;93.53;43.05;;;4.00;99.90;;;;;;5074733;28;20037;-81
2023/02/25 01:38:17;;;;;;;65.90;31.38;;;4.00;99.90;;;;;;5074883;28;20103;-81
2023/02/25 01:40:43;;;;;;;84.63;40.75;;;4.00;99.90;;;;;;5074832;28;20035;-81
2023/02/25 01:43:15;;;;;;;61.45;28.63;;;4.00;99.90;;;;;;5074953;28;20032;-80
2023/02/25 01:45:43;;;;;;;57.80;27.83;;;4.00;99.90;;;;;;5073937;28;20144;-79
2023/02/25 01:48:14;;;;;;;85.70;41.08;;;3.90;99.90;;;;;;5073871;28;20259;-81
2023/02/25 01:50:48;;;;;;;153.27;64.55;;;4.00;99.90;;;;;;5073785;28;20062;-81
2023/02/25 01:53:17;;;;;;;103.68;42.58;;;3.90;99.90;;;;;;5073837;28;20012;-81
2023/02/25 01:55:43;;;;;;;65.40;30.38;;;3.80;99.90;;;;;;5074448;28;20032;-81
2023/02/25 01:58:10;;;;;;;45.35;21.52;;;3.70;99.90;;;;;;5073749;28;20370;-81
2023/02/25 02:00:37;;;;;;;126.07;48.85;;;3.70;99.90;;;;;;5074552;28;20083;-81
2023/02/25 02:03:03;;;;;;;75.40;34.72;;;3.70;99.90;;;;;;5073256;28;20016;-81
2023/02/25 02:05:44;;;;;;;46.72;23.25;;;3.70;99.90;;;;;;5074600;28;20074;-81
2023/02/25 02:08:10;;;;;;;51.92;25.70;;;3.60;99.90;;;;;;5073552;28;20020;-80
2023/02/25 02:10:36;;;;;;;99.40;41.58;;;3.50;99.90;;;;;;5074204;28;20033;-80
2023/02/25 02:13:01;;;;;;;51.88;23.58;;;3.50;99.90;;;;;;5072989;28;20041;-81
2023/02/25 02:15:30;;;;;;;57.78;26.95;;;3.40;99.90;;;;;;5074265;28;20436;-80
2023/02/25 02:18:00;;;;;;;51.28;23.80;;;3.40;99.90;;;;;;5074347;28;20028;-81
2023/02/25 02:20:28;;;;;;;60.00;28.67;;;3.40;99.90;;;;;;5074146;28;20031;-80
2023/02/25 02:23:20;;;;;;;56.80;28.23;;;3.30;99.90;;;;;;5073187;28;20450;-81
2023/02/25 02:26:05;;;;;;;252.95;91.32;;;3.30;99.90;;;;;;5073040;28;20101;-81
2023/02/25 02:29:05;;;;;;;248.00;91.10;;;3.30;99.90;;;;;;5073915;28;20435;-82
2023/02/25 02:32:04;;;;;;;70.15;31.17;;;3.30;99.90;;;;;;5072712;28;20025;-82
2023/02/25 02:34:35;;;;;;;60.42;25.77;;;3.40;99.90;;;;;;5074053;28;20056;-80
2023/02/25 02:37:05;;;;;;;72.10;28.83;;;3.40;99.90;;;;;;5073841;28;20021;-81
2023/02/25 02:40:04;;;;;;;114.88;44.70;;;3.40;99.90;;;;;;5074193;28;20047;-81
2023/02/25 02:42:58;;;;;;;247.85;88.90;;;3.30;99.90;;;;;;5072429;28;20025;-81
2023/02/25 02:45:26;;;;;;;147.13;54.75;;;3.40;99.90;;;;;;5072294;28;20048;-79
2023/02/25 02:47:59;;;;;;;120.85;46.70;;;3.40;99.90;;;;;;5072589;28;20020;-81
2023/02/25 02:50:49;;;;;;;164.88;62.30;;;3.40;99.90;;;;;;5073706;28;20074;-81
2023/02/25 02:53:27;;;;;;;137.48;53.95;;;3.30;99.90;;;;;;5072195;28;20054;-81
2023/02/25 02:55:58;;;;;;;143.98;54.20;;;3.30;99.90;;;;;;5073228;28;20033;-81
2023/02/25 02:58:33;;;;;;;244.55;85.95;;;3.30;99.90;;;;;;5072252;28;20117;-82
2023/02/25 03:01:07;;;;;;;169.40;60.95;;;3.30;99.90;;;;;;5073322;28;20024;-82
2023/02/25 03:03:40;;;;;;;77.47;32.42;;;3.30;99.90;;;;;;5073339;28;20478;-80
2023/02/25 03:06:13;;;;;;;205.90;73.50;;;3.30;99.90;;;;;;5073424;28;20371;-81
2023/02/25 03:08:46;;;;;;;126.63;45.45;;;3.20;99.90;;;;;;5073359;28;20206;-81
2023/02/25 03:11:13;;;;;;;49.85;23.02;;;3.30;99.90;;;;;;5073251;28;20021;-81
2023/02/25 03:13:39;;;;;;;65.90;28.38;;;3.20;99.90;;;;;;5073243;28;20025;-81
2023/02/25 03:16:09;;;;;;;36.55;18.55;;;3.30;99.90;;;;;;5072917;28;20035;-82
2023/02/25 03:18:39;;;;;;;42.72;21.75;;;3.30;99.90;;;;;;5071356;28;20046;-84
2023/02/25 03:21:12;;;;;;;32.80;17.17;;;3.30;99.90;;;;;;5072322;28;20425;-79
2023/02/25 03:23:40;;;;;;;35.85;17.15;;;3.30;99.90;;;;;;5073397;28;20012;-80
2023/02/25 03:26:27;;;;;;;30.38;15.13;;;3.20;99.90;;;;;;5072125;28;20078;-79
2023/02/25 03:28:52;;;;;;;54.13;25.55;;;3.20;99.90;;;;;;5073097;28;20417;-79
2023/02/25 03:31:41;;;;;;;32.75;16.92;;;3.20;99.90;;;;;;5071986;28;20054;-79
2023/02/25 03:34:39;;;;;;;33.42;15.45;;;3.20;99.90;;;;;;5072352;28;20056;-80
2023/02/25 03:37:13;;;;;;;34.05;15.32;;;3.10;99.90;;;;;;5071092;28;20033;-79
2023/02/25 03:39:41;;;;;;;52.40;25.10;;;3.00;99.90;;;;;;5071561;28;20104;-79
2023/02/25 03:42:11;;;;;;;40.75;18.90;;;3.00;99.90;;;;;;5073321;28;20016;-79
2023/02/25 03:44:59;;;;;;;30.88;15.07;;;3.00;99.90;;;;;;5073298;28;20059;-79
2023/02/25 03:47:28;;;;;;;28.50;14.73;;;2.90;99.90;;;;;;5073192;28;20033;-79
2023/02/25 03:50:21;;;;;;;41.03;21.38;;;2.80;99.90;;;;;;5071747;28;20019;-79
2023/02/25 03:52:46;;;;;;;36.33;18.58;;;2.70;99.90;;;;;;5073056;28;20547;-79
2023/02/25 03:55:15;;;;;;;32.17;17.80;;;2.70;99.90;;;;;;5071613;28;20041;-79
2023/02/25 03:57:43;;;;;;;30.42;16.75;;;2.60;99.90;;;;;;5071672;28;20020;-80
2023/02/25 04:00:27;;;;;;;45.80;22.70;;;2.50;99.90;;;;;;5071552;28;20021;-84
2023/02/25 04:02:53;;;;;;;50.45;22.67;;;2.50;99.90;;;;;;5071346;28;20386;-82
2023/02/25 04:05:20;;;;;;;42.08;18.90;;;2.40;99.90;;;;;;5071211;28;20381;-81
2023/02/25 04:07:46;;;;;;;48.28;21.27;;;2.30;99.90;;;;;;5070862;28;20116;-82
2023/02/25 04:10:13;;;;;;;29.67;15.10;;;2.20;99.90;;;;;;5072592;28;20032;-82
2023/02/25 04:12:39;;;;;;;20.77;11.65;;;2.30;99.90;;;;;;5072796;28;20155;-80
2023/02/25 04:15:07;;;;;;;27.17;12.23;;;2.20;99.90;;;;;;5072600;28;20108;-80
2023/02/25 04:17:33;;;;;;;17.02;8.68;;;2.20;99.90;;;;;;5072587;28;20024;-81
2023/02/25 04:19:59;;;;;;;17.55;10.30;;;2.20;99.90;;;;;;5071385;28;20055;-79
2023/02/25 04:22:25;;;;;;;19.27;9.57;;;2.20;99.90;;;;;;5071508;28;20051;-80
2023/02/25 04:24:50;;;;;;;22.23;11.93;;;2.10;99.90;;;;;;5072713;28;20017;-80
2023/02/25 04:27:16;;;;;;;16.67;9.82;;;2.10;99.90;;;;;;5072629;28;20111;-80
2023/02/25 04:29:42;;;;;;;24.33;13.52;;;2.10;99.90;;;;;;5071486;28;20032;-80
2023/02/25 04:32:08;;;;;;;17.17;8.57;;;2.10;99.90;;;;;;5072547;28;20025;-79
2023/02/25 04:34:34;;;;;;;16.80;8.48;;;2.10;99.90;;;;;;5072350;28;20452;-82
2023/02/25 04:37:01;;;;;;;17.50;9.07;;;2.10;99.90;;;;;;5072360;28;20025;-80
2023/02/25 04:39:27;;;;;;;15.52;9.98;;;2.10;99.90;;;;;;5071026;28;20017;-81
2023/02/25 04:41:53;;;;;;;17.02;8.88;;;2.00;99.90;;;;;;5072234;28;20086;-81
2023/02/25 04:44:19;;;;;;;16.77;8.88;;;2.00;99.90;;;;;;5071156;28;20445;-80
2023/02/25 04:46:45;;;;;;;17.80;8.85;;;2.00;99.90;;;;;;5070934;28;20091;-79
2023/02/25 04:49:10;;;;;;;16.20;8.80;;;2.00;99.90;;;;;;5071666;28;20041;-79
2023/02/25 04:51:38;;;;;;;18.35;10.35;;;2.00;99.90;;;;;;5074996;28;20024;-79
2023/02/25 04:54:03;;;;;;;17.40;8.45;;;2.10;99.90;;;;;;5074600;28;20111;-79
2023/02/25 04:56:29;;;;;;;17.05;9.15;;;2.10;99.90;;;;;;5074875;28;20565;-79
2023/02/25 04:58:56;;;;;;;20.85;11.07;;;2.00;99.90;;;;;;5074901;28;20158;-79
2023/02/25 05:01:22;;;;;;;21.63;10.52;;;2.00;99.90;;;;;;5074855;28;20024;-80
2023/02/25 05:03:48;;;;;;;15.07;7.95;;;2.00;99.90;;;;;;5074735;28;20114;-81
2023/02/25 05:06:13;;;;;;;14.75;8.13;;;2.10;99.90;;;;;;5075822;28;20025;-81
2023/02/25 05:08:39;;;;;;;16.60;9.40;;;2.10;99.90;;;;;;5074314;28;20043;-81
2023/02/25 05:11:05;;;;;;;17.10;10.10;;;2.10;99.90;;;;;;5075627;28;20046;-81
2023/02/25 05:13:31;;;;;;;20.08;9.10;;;2.10;99.90;;;;;;5074597;28;20020;-81
2023/02/25 05:16:05;;;;;;;13.77;8.60;;;2.10;99.90;;;;;;5073978;28;20039;-81
2023/02/25 05:18:31;;;;;;;14.93;9.10;;;2.10;99.90;;;;;;5075566;28;20024;-81
2023/02/25 05:20:56;;;;;;;16.75;8.98;;;2.10;99.90;;;;;;5075447;28;20032;-81
2023/02/25 05:23:22;;;;;;;16.27;9.15;;;2.10;99.90;;;;;;5074369;28;20025;-81
2023/02/25 05:25:47;;;;;;;12.82;8.27;;;2.10;99.90;;;;;;5075335;28;20031;-81
2023/02/25 05:28:13;;;;;;;16.73;9.68;;;2.00;99.90;;;;;;5073887;28;20120;-81
2023/02/25 05:30:39;;;;;;;16.80;9.02;;;2.10;99.90;;;;;;5075054;28;20035;-81
2023/02/25 05:33:07;;;;;;;16.10;10.90;;;2.00;99.90;;;;;;5075123;28;20024;-81
2023/02/25 05:35:33;;;;;;;15.70;9.60;;;2.00;99.90;;;;;;5073508;28;20559;-81
2023/02/25 05:37:59;;;;;;;15.43;8.90;;;2.00;99.90;;;;;;5075089;28;20028;-81
2023/02/25 05:40:25;;;;;;;19.23;10.18;;;2.00;99.90;;;;;;5074970;28;20024;-80
2023/02/25 05:42:51;;;;;;;19.00;11.02;;;2.00;99.90;;;;;;5075334;28;20027;-80
2023/02/25 05:45:17;;;;;;;20.48;9.52;;;2.00;99.90;;;;;;5074965;28;20045;-81
2023/02/25 05:47:43;;;;;;;13.90;9.65;;;2.00;99.90;;;;;;5073737;28;20100;-81
2023/02/25 05:50:10;;;;;;;15.32;9.07;;;1.90;99.90;;;;;;5073809;28;20016;-81
2023/02/25 05:52:36;;;;;;;16.13;8.80;;;1.90;99.90;;;;;;5074812;28;20103;-80
2023/02/25 05:55:01;;;;;;;16.85;10.10;;;1.90;99.90;;;;;;5074634;28;20108;-79
2023/02/25 05:57:27;;;;;;;20.95;11.82;;;1.90;99.90;;;;;;5073454;28;20020;-78
2023/02/25 05:59:53;;;;;;;20.95;12.45;;;1.90;99.90;;;;;;5074783;28;20021;-79
2023/02/25 06:02:18;;;;;;;18.55;11.25;;;1.90;99.90;;;;;;5074723;28;20471;-79
2023/02/25 06:04:44;;;;;;;17.77;10.25;;;1.90;99.90;;;;;;5074422;28;20115;-80
2023/02/25 06:07:09;;;;;;;21.05;11.35;;;1.90;99.90;;;;;;5074833;28;20036;-80
2023/02/25 06:09:36;;;;;;;18.45;10.75;;;1.90;99.90;;;;;;5074477;28;20413;-80
2023/02/25 06:12:02;;;;;;;17.55;10.23;;;1.80;99.90;;;;;;5073435;28;20029;-80
2023/02/25 06:14:28;;;;;;;23.75;12.60;;;1.80;99.90;;;;;;5073149;28;20071;-79
2023/02/25 06:16:56;;;;;;;36.20;14.13;;;1.80;99.90;;;;;;5074269;28;20424;-80
2023/02/25 06:19:25;;;;;;;73.13;28.60;;;1.80;99.90;;;;;;5072966;28;20025;-80
2023/02/25 06:21:53;;;;;;;197.77;92.60;;;1.80;99.90;;;;;;5073085;28;20111;-80
2023/02/25 06:24:20;;;;;;;185.95;85.15;;;1.90;99.90;;;;;;5072905;28;20540;-81
2023/02/25 06:26:46;;;;;;;143.13;62.55;;;1.90;99.90;;;;;;5073952;28;20036;-80
2023/02/25 06:29:12;;;;;;;416.10;164.25;;;1.90;99.90;;;;;;5072801;28;20025;-80
2023/02/25 06:31:38;;;;;;;901.97;414.10;;;1.90;99.90;;;;;;5072973;28;20103;-81
2023/02/25 06:34:04;;;;;;;685.55;293.48;;;1.90;99.90;;;;;;5073843;28;20024;-82
2023/02/25 06:36:29;;;;;;;736.80;319.63;;;1.90;99.90;;;;;;5073605;28;20035;-81
2023/02/25 06:38:55;;;;;;;418.80;144.15;;;1.90;99.90;;;;;;5072387;28;20029;-80
2023/02/25 06:41:22;;;;;;;187.02;57.25;;;2.00;99.90;;;;;;5072516;28;20021;-82
2023/02/25 06:43:50;;;;;;;91.05;29.38;;;2.00;99.90;;;;;;5073692;28;20032;-80
2023/02/25 06:46:18;;;;;;;112.60;38.83;;;2.10;99.90;;;;;;5073568;28;20087;-81
2023/02/25 06:48:44;;;;;;;155.38;62.88;;;2.00;99.90;;;;;;5072658;28;20393;-81
2023/02/25 06:51:11;;;;;;;146.55;51.28;;;2.00;99.90;;;;;;5073547;28;20035;-80
2023/02/25 06:53:42;;;;;;;83.78;28.17;;;2.10;99.90;;;;;;5073468;28;20130;-81
2023/02/25 06:56:09;;;;;;;60.80;22.67;;;2.00;99.90;;;;;;5072426;28;20028;-81
2023/02/25 06:58:36;;;;;;;100.05;37.17;;;2.10;99.90;;;;;;5073447;28;20059;-80
2023/02/25 07:01:09;;;;;;;87.65;33.08;;;2.10;99.90;;;;;;5072365;28;20055;-82
2023/02/25 07:03:35;;;;;;;78.90;30.80;;;2.10;99.90;;;;;;5066835;28;20021;-82
2023/02/25 07:06:01;;;;;;;59.13;24.55;;;2.10;99.90;;;;;;5052160;28;20028;-82
2023/02/25 07:08:27;;;;;;;132.63;47.08;;;2.20;99.90;;;;;;5051885;28;20029;-82
2023/02/25 07:10:52;;;;;;;139.95;42.92;;;2.30;99.90;;;;;;5052928;28;20025;-80
2023/02/25 07:13:18;;;;;;;137.15;47.92;;;2.20;99.90;;;;;;5052777;28;20029;-81
2023/02/25 07:15:44;;;;;;;157.38;59.90;;;2.30;99.90;;;;;;5049612;28;20045;-81
2023/02/25 07:18:09;;;;;;;70.18;29.45;;;2.20;99.90;;;;;;5052594;28;20494;-83
2023/02/25 07:20:38;;;;;;;86.80;29.90;;;2.20;99.90;;;;;;5052370;28;20017;-83
2023/02/25 07:23:04;;;;;;;135.90;51.70;;;2.00;99.90;;;;;;5051794;28;20021;-79
2023/02/25 07:25:30;;;;;;;80.88;29.83;;;1.90;99.90;;;;;;5052751;28;20064;-80
2023/02/25 07:27:55;;;;;;;90.68;31.30;;;2.00;99.90;;;;;;5052868;28;20024;-78
2023/02/25 07:30:21;;;;;;;94.68;34.20;;;2.00;99.90;;;;;;5051574;28;20116;-78
2023/02/25 07:32:47;;;;;;;97.82;36.33;;;2.00;99.90;;;;;;5052834;28;20021;-78
2023/02/25 07:35:17;;;;;;;110.18;44.83;;;1.90;99.90;;;;;;5051249;28;20083;-78
2023/02/25 07:37:43;;;;;;;94.13;35.90;;;2.10;99.90;;;;;;5052733;28;20029;-78
2023/02/25 07:40:13;;;;;;;64.63;28.08;;;2.20;99.90;;;;;;5068161;28;20122;-78
2023/02/25 07:42:40;;;;;;;75.03;31.95;;;2.40;99.90;;;;;;5067040;28;20082;-79
2023/02/25 07:45:06;;;;;;;58.08;27.52;;;2.40;99.90;;;;;;5072207;28;20025;-79
2023/02/25 07:47:32;;;;;;;70.95;30.35;;;2.50;99.90;;;;;;5072300;28;20025;-79
2023/02/25 07:49:57;;;;;;;62.33;31.77;;;2.40;99.90;;;;;;5071380;28;20489;-79
2023/02/25 07:52:23;;;;;;;64.00;31.05;;;2.50;99.90;;;;;;5071276;28;20027;-80
2023/02/25 07:54:49;;;;;;;59.72;28.35;;;2.40;99.90;;;;;;5068822;28;20539;-80
2023/02/25 07:57:14;;;;;;;64.78;28.50;;;2.40;99.90;;;;;;5048538;28;20013;-80
2023/02/25 07:59:40;;;;;;;63.70;29.77;;;2.40;99.90;;;;;;5049445;28;20083;-80
2023/02/25 08:02:09;;;;;;;57.42;28.17;;;2.50;99.90;;;;;;5051607;28;20104;-80
2023/02/25 08:04:35;;;;;;;72.40;31.85;;;2.40;99.90;;;;;;5051392;28;20025;-81
2023/02/25 08:07:01;;;;;;;56.35;24.38;;;2.50;99.90;;;;;;5051317;28;20024;-79
2023/02/25 08:09:26;;;;;;;44.92;20.88;;;2.60;99.90;;;;;;5051146;28;20021;-80
2023/02/25 08:11:52;;;;;;;49.80;23.77;;;2.60;99.90;;;;;;5052364;28;20022;-78
2023/02/25 08:14:20;;;;;;;48.50;21.35;;;2.80;99.90;;;;;;5054816;28;20035;-79
2023/02/25 08:16:46;;;;;;;51.80;22.63;;;3.00;99.90;;;;;;5059304;28;20025;-80
2023/02/25 08:19:12;;;;;;;52.10;23.90;;;3.10;99.90;;;;;;5056870;28;20142;-80
2023/02/25 08:21:39;;;;;;;44.45;21.05;;;3.20;99.90;;;;;;5057838;28;20111;-80
2023/02/25 08:24:05;;;;;;;40.42;20.83;;;3.20;99.90;;;;;;5051315;28;20017;-80
2023/02/25 08:26:31;;;;;;;30.27;16.80;;;3.10;99.90;;;;;;5054729;28;20029;-80
2023/02/25 08:28:57;;;;;;;31.17;14.93;;;3.10;99.90;;;;;;5054622;28;20378;-80
2023/02/25 08:31:23;;;;;;;40.28;21.15;;;3.00;99.90;;;;;;5058440;28;20028;-80
2023/02/25 08:33:51;;;;;;;36.95;18.38;;;3.00;99.90;;;;;;5054657;28;20092;-80
2023/02/25 08:36:43;;;;;;;41.13;20.73;;;2.90;99.90;;;;;;5056450;28;20079;-80
2023/02/25 08:39:09;;;;;;;43.10;21.40;;;2.80;99.90;;;;;;5050986;28;20452;-80
2023/02/25 08:41:36;;;;;;;48.25;23.45;;;2.70;99.90;;;;;;5054425;28;20116;-80
2023/02/25 08:44:02;;;;;;;34.15;18.75;;;2.70;99.90;;;;;;5055908;28;20021;-80
2023/02/25 08:46:30;;;;;;;21.33;15.38;;;2.80;99.90;;;;;;5054552;28;20140;-79
2023/02/25 08:48:56;;;;;;;25.15;12.98;;;2.70;99.90;;;;;;5055964;28;20052;-80
2023/02/25 08:51:32;;;;;;;23.92;11.88;;;2.70;99.90;;;;;;5054911;28;20013;-80
2023/02/25 08:54:00;;;;;;;16.42;10.18;;;2.70;99.90;;;;;;5056325;28;20021;-79
2023/02/25 08:56:26;;;;;;;21.50;11.82;;;2.70;99.90;;;;;;5055825;28;20059;-80
2023/02/25 08:58:53;;;;;;;18.10;10.35;;;2.60;99.90;;;;;;5054937;28;20021;-81
2023/02/25 09:01:19;;;;;;;21.70;11.40;;;2.60;99.90;;;;;;5055459;28;20025;-80
2023/02/25 09:03:50;;;;;;;16.33;8.98;;;2.60;99.90;;;;;;5055745;28;20048;-79
2023/02/25 09:06:20;;;;;;;14.05;8.43;;;2.60;99.90;;;;;;5054032;28;20021;-80
2023/02/25 09:08:45;;;;;;;16.95;8.52;;;2.70;99.90;;;;;;5054057;28;20020;-79
2023/02/25 09:11:11;;;;;;;14.02;10.02;;;2.80;99.90;;;;;;5053917;28;20021;-80
2023/02/25 09:13:36;;;;;;;12.90;7.78;;;2.90;99.90;;;;;;5053944;28;20029;-80
2023/02/25 09:16:02;;;;;;;13.98;8.57;;;3.00;99.90;;;;;;5055946;28;20028;-80
2023/02/25 09:18:29;;;;;;;19.42;10.48;;;3.10;99.90;;;;;;5059966;28;20078;-79
2023/02/25 09:20:55;;;;;;;32.40;15.40;;;3.30;99.90;;;;;;5051446;28;20405;-80
2023/02/25 09:23:21;;;;;;;28.88;12.98;;;3.40;99.90;;;;;;5069550;28;20063;-81
2023/02/25 09:25:46;;;;;;;27.50;13.75;;;3.30;99.90;;;;;;5053006;28;20029;-81
2023/02/25 09:28:12;;;;;;;32.65;15.98;;;3.30;99.90;;;;;;5059061;28;20033;-81
2023/02/25 09:30:38;;;;;;;35.80;17.10;;;3.40;99.90;;;;;;5064028;28;20025;-81
2023/02/25 09:33:03;;;;;;;35.03;14.65;;;3.30;99.90;;;;;;5062604;28;20021;-81
2023/02/25 09:35:30;;;;;;;29.98;14.88;;;3.40;99.90;;;;;;5044902;28;20041;-80
2023/02/25 09:37:57;;;;;;;24.23;13.63;;;3.40;99.90;;;;;;5051364;28;20037;-80
2023/02/25 09:40:23;;;;;;;22.63;13.48;;;3.50;99.90;;;;;;5051721;28;20033;-80
2023/02/25 09:42:54;;;;;;;21.63;12.48;;;3.50;99.90;;;;;;5053210;28;20017;-80
2023/02/25 09:45:23;;;;;;;23.77;11.93;;;3.60;99.90;;;;;;5051730;28;20049;-81
2023/02/25 09:47:59;;;;;;;28.40;14.65;;;3.60;99.90;;;;;;5051835;28;20035;-81
2023/02/25 09:50:31;;;;;;;28.48;15.02;;;3.70;99.90;;;;;;5053332;28;20037;-81
2023/02/25 09:53:29;;;;;;;36.63;17.48;;;3.80;99.90;;;;;;5052501;28;20364;-81
2023/02/25 09:55:54;;;;;;;32.30;16.25;;;3.70;99.90;;;;;;5019757;28;20052;-82
2023/02/25 09:58:35;;;;;;;22.55;13.38;;;3.70;99.90;;;;;;5047113;28;20025;-80
2023/02/25 10:01:09;;;;;;;19.33;12.05;;;3.70;99.90;;;;;;5053315;28;20033;-81
2023/02/25 10:03:50;;;;;;;21.20;11.27;;;3.70;99.90;;;;;;5052288;28;20490;-79
2023/02/25 10:06:35;;;;;;;18.13;10.40;;;3.80;99.90;;;;;;5038373;28;20037;-82
2023/02/25 10:09:28;;;;;;;21.58;11.30;;;3.90;99.90;;;;;;5031956;28;20079;-80
2023/02/25 10:12:28;;;;;;;16.77;9.73;;;4.10;99.90;;;;;;5038105;28;20032;-81
2023/02/25 10:15:12;;;;;;;13.00;8.10;;;4.30;99.90;;;;;;5051903;28;20061;-80
2023/02/25 10:17:43;;;;;;;10.02;5.63;;;4.30;99.90;;;;;;5052805;28;20025;-80
2023/02/25 10:20:17;;;;;;;7.38;4.70;;;4.30;99.90;;;;;;5051860;28;20364;-80
2023/02/25 10:22:48;;;;;;;8.45;4.18;;;4.30;99.90;;;;;;5062724;28;20116;-80
2023/02/25 10:25:21;;;;;;;8.27;5.65;;;4.30;99.90;;;;;;5071375;28;20119;-79
2023/02/25 10:27:55;;;;;;;15.90;8.07;;;4.50;99.90;;;;;;5072376;28;20021;-79
2023/02/25 10:30:42;;;;;;;8.32;4.82;;;4.70;99.90;;;;;;5059424;28;20339;-80
2023/02/25 10:33:31;;;;;;;10.48;6.22;;;4.70;99.90;;;;;;5035822;28;20041;-80
2023/02/25 10:36:02;;;;;;;13.18;6.88;;;4.80;99.90;;;;;;5045729;28;20047;-81
2023/02/25 10:38:27;;;;;;;17.83;7.95;;;4.80;99.90;;;;;;5051715;28;20395;-81
2023/02/25 10:40:56;;;;;;;14.82;8.48;;;4.70;99.90;;;;;;5052907;28;20025;-80
2023/02/25 10:43:25;;;;;;;8.88;6.32;;;4.60;99.90;;;;;;5052162;28;20062;-81
2023/02/25 10:45:59;;;;;;;13.65;7.55;;;4.70;99.90;;;;;;5048797;28;20136;-81
2023/02/25 10:48:24;;;;;;;14.85;8.45;;;4.80;99.90;;;;;;5050615;28;20053;-80
2023/02/25 10:51:11;;;;;;;6.60;4.35;;;4.70;99.90;;;;;;5051692;28;20056;-81
2023/02/25 10:53:56;;;;;;;10.73;5.28;;;4.70;99.90;;;;;;5050922;28;20025;-81
2023/02/25 10:56:27;;;;;;;11.27;6.78;;;4.60;99.90;;;;;;5049876;28;20562;-81
2023/02/25 10:58:59;;;;;;;10.95;5.88;;;4.40;99.90;;;;;;5052034;28;20044;-80
2023/02/25 11:01:33;;;;;;;16.60;7.47;;;4.40;99.90;;;;;;5050493;28;20036;-81
2023/02/25 11:04:04;;;;;;;12.77;7.38;;;4.20;99.90;;;;;;5048502;28;20032;-80
2023/02/25 11:06:35;;;;;;;13.80;8.90;;;4.00;99.90;;;;;;5049747;28;20029;-81
2023/02/25 11:09:25;;;;;;;30.55;16.15;;;3.90;99.90;;;;;;5048411;28;20024;-80
2023/02/25 11:12:18;;;;;;;16.23;7.97;;;4.00;99.90;;;;;;5050242;28;20029;-81
2023/02/25 11:14:44;;;;;;;37.30;15.07;;;4.00;99.90;;;;;;5049227;28;20041;-81
2023/02/25 11:17:13;;;;;;;28.25;13.85;;;3.90;99.90;;;;;;5051734;28;20163;-81
2023/02/25 11:19:52;;;;;;;199.40;81.53;;;4.10;99.90;;;;;;5052255;28;20478;-81
2023/02/25 11:22:22;;;;;;;70.93;29.90;;;4.10;99.90;;;;;;5052056;28;20085;-81
2023/02/25 11:25:03;;;;;;;40.17;16.23;;;4.20;99.90;;;;;;5053273;28;20017;-82
2023/02/25 11:27:38;;;;;;;28.58;13.35;;;4.20;99.90;;;;;;5052020;28;20462;-81
2023/02/25 11:30:27;;;;;;;23.25;10.32;;;4.10;99.90;;;;;;5052068;28;20025;-81
2023/02/25 11:32:56;;;;;;;96.75;52.72;;;3.80;99.90;;;;;;5038113;28;20422;-81
2023/02/25 11:35:53;;;;;;;17.38;10.77;;;3.60;99.90;;;;;;5053134;28;20036;-81
2023/02/25 11:38:31;;;;;;;40.67;22.42;;;2.60;99.90;;;;;;5052226;28;20395;-81
2023/02/25 11:40:57;;;;;;;17.50;12.38;;;2.30;99.90;;;;;;5052228;28;20032;-81
2023/02/25 11:43:26;;;;;;;15.10;11.20;;;2.20;99.90;;;;;;5053285;28;20021;-80
2023/02/25 11:45:53;;;;;;;15.07;9.65;;;1.90;99.90;;;;;;5053045;28;20048;-80
2023/02/25 11:48:29;;;;;;;23.95;13.50;;;2.00;99.90;;;;;;5052345;28;20021;-81
2023/02/25 11:51:23;;;;;;;12.40;7.28;;;2.00;99.90;;;;;;5051864;28;20501;-81
2023/02/25 11:53:57;;;;;;;10.63;5.82;;;2.10;99.90;;;;;;5053503;28;20025;-81
2023/02/25 11:56:35;;;;;;;7.40;5.13;;;2.10;99.90;;;;;;5052963;28;20029;-81
2023/02/25 11:59:17;;;;;;;7.15;4.20;;;2.00;99.90;;;;;;5053245;28;20370;-81
2023/02/25 12:01:55;;;;;;;2.40;2.20;;;1.80;99.90;;;;;;5056267;28;20025;-81
2023/02/25 12:04:33;;;;;;;4.93;2.80;;;1.60;99.90;;;;;;5056362;28;20033;-81
2023/02/25 12:07:09;;;;;;;4.90;3.50;;;1.30;99.90;;;;;;5055979;28;20033;-81
2023/02/25 12:09:53;;;;;;;3.28;2.97;;;1.30;99.90;;;;;;5056053;28;20021;-81
2023/02/25 12:12:50;;;;;;;4.82;3.40;;;1.20;99.90;;;;;;5056908;28;20021;-81
2023/02/25 12:15:28;;;;;;;6.47;5.78;;;1.20;99.90;;;;;;5045310;28;20487;-81
2023/02/25 12:18:03;;;;;;;4.20;3.80;;;1.40;99.90;;;;;;5056767;28;20033;-81
2023/02/25 12:20:49;;;;;;;4.50;4.05;;;1.50;99.90;;;;;;5056875;28;21419;-81
2023/02/25 12:23:33;;;;;;;5.00;4.50;;;1.60;99.90;;;;;;5055538;28;20031;-80
2023/02/25 12:26:29;;;;;;;6.05;4.18;;;1.70;99.90;;;;;;5056809;28;20043;-81
2023/02/25 12:29:13;;;;;;;7.68;4.38;;;1.80;99.90;;;;;;5057055;28;20031;-81
2023/02/25 12:32:22;;;;;;;5.25;4.15;;;1.90;99.90;;;;;;5055139;28;20036;-81
2023/02/25 12:35:11;;;;;;;6.05;3.90;;;2.00;99.90;;;;;;5041732;28;20040;-80
2023/02/25 12:37:58;;;;;;;4.65;3.47;;;1.90;99.90;;;;;;5055728;28;20025;-80
2023/02/25 12:40:37;;;;;;;4.63;3.05;;;1.90;99.90;;;;;;5056466;28;20021;-80
2023/02/25 12:43:21;;;;;;;4.40;3.35;;;1.70;99.90;;;;;;5055146;28;20025;-81
2023/02/25 12:45:58;;;;;;;5.10;4.03;;;1.60;99.90;;;;;;5056384;28;20093;-81
2023/02/25 12:48:47;;;;;;;11.82;7.53;;;1.50;99.90;;;;;;5056385;28;20044;-80
2023/02/25 12:51:27;;;;;;;8.13;5.65;;;1.40;99.90;;;;;;5056727;28;20029;-80
2023/02/25 12:53:59;;;;;;;10.18;6.35;;;1.40;99.90;;;;;;5054946;28;20025;-80
2023/02/25 12:56:46;;;;;;;17.48;10.27;;;1.60;99.90;;;;;;5054789;28;20065;-80
2023/02/25 12:59:24;;;;;;;13.82;9.88;;;1.70;99.90;;;;;;5055018;28;20486;-80